Time;durP1;ratioP1;P1;durP2;ratioP2;P2;SDS_P1;SDS_P2;PMS_P1;PMS_P2;Temp;Humidity;BMP_temperature;BMP_pressure;BME280_temperature;BME280_humidity;BME280_pressure;Samples;Min_cycle;Max_cycle;Signal;HPM_P1;HPM_P2
2024/04/12 00:00:58;;;;;;;7.03;3.20;;;17.00;95.70;;;;;;5490650;26;20444;-56
2024/04/12 00:03:29;;;;;;;10.37;3.80;;;17.00;95.70;;;;;;5490531;26;20508;-56
2024/04/12 00:05:57;;;;;;;8.40;3.47;;;17.00;95.60;;;;;;5490521;26;20492;-56
2024/04/12 00:08:28;;;;;;;9.23;4.03;;;17.00;95.60;;;;;;5490631;26;20519;-56
2024/04/12 00:10:56;;;;;;;16.13;4.17;;;17.00;95.70;;;;;;5490439;26;20444;-56
2024/04/12 00:13:26;;;;;;;16.57;4.30;;;17.00;95.70;;;;;;5490362;26;20503;-56
2024/04/12 00:15:55;;;;;;;14.07;4.23;;;17.00;95.70;;;;;;5490272;26;20452;-56
2024/04/12 00:18:26;;;;;;;7.30;3.20;;;17.00;95.80;;;;;;5490195;26;20463;-57
2024/04/12 00:20:58;;;;;;;9.23;3.77;;;17.00;95.80;;;;;;5490357;26;20447;-57
2024/04/12 00:23:27;;;;;;;7.13;3.63;;;17.00;95.80;;;;;;5490132;26;20448;-57
2024/04/12 00:25:55;;;;;;;5.63;3.03;;;16.90;95.80;;;;;;5490159;26;20448;-57
2024/04/12 00:28:25;;;;;;;7.83;3.30;;;16.90;95.90;;;;;;5490231;26;20823;-57
2024/04/12 00:30:51;;;;;;;10.57;4.33;;;16.90;95.90;;;;;;5490110;26;20444;-57
2024/04/12 00:33:20;;;;;;;7.47;2.77;;;16.90;96.00;;;;;;5490172;26;20508;-58
2024/04/12 00:35:49;;;;;;;6.33;3.20;;;16.90;96.10;;;;;;5490144;26;20770;-57
2024/04/12 00:38:23;;;;;;;14.77;3.57;;;16.90;95.90;;;;;;5489887;26;20456;-57
2024/04/12 00:40:52;;;;;;;3.40;2.27;;;16.90;95.90;;;;;;5490093;26;20447;-56
2024/04/12 00:43:27;;;;;;;6.20;2.73;;;16.90;96.00;;;;;;5490096;26;20500;-57
2024/04/12 00:45:54;;;;;;;7.93;2.43;;;16.90;95.90;;;;;;5490064;26;20454;-57
2024/04/12 00:48:26;;;;;;;3.93;2.60;;;16.90;95.90;;;;;;5490161;26;20996;-57
2024/04/12 00:50:52;;;;;;;8.43;3.73;;;16.80;95.90;;;;;;5490106;26;20492;-57
2024/04/12 00:53:28;;;;;;;3.87;2.50;;;16.80;96.00;;;;;;5490054;26;20510;-58
2024/04/12 00:56:00;;;;;;;7.47;2.70;;;16.90;96.10;;;;;;5488507;26;21066;-57
2024/04/12 00:58:32;;;;;;;9.63;3.30;;;16.80;96.10;;;;;;5489869;26;20456;-57
2024/04/12 01:01:10;;;;;;;4.07;2.40;;;16.90;96.10;;;;;;5490473;26;20496;-57
2024/04/12 01:03:45;;;;;;;4.80;2.00;;;16.90;96.00;;;;;;5489993;26;20499;-56
2024/04/12 01:06:15;;;;;;;3.00;1.80;;;16.80;95.90;;;;;;5489825;26;20451;-56
2024/04/12 01:08:46;;;;;;;5.23;2.53;;;16.80;95.80;;;;;;5489607;26;20483;-56
2024/04/12 01:11:13;;;;;;;3.10;2.13;;;16.80;95.90;;;;;;5489691;26;20451;-56
2024/04/12 01:13:42;;;;;;;2.70;2.50;;;16.80;95.90;;;;;;5489704;26;20496;-56
2024/04/12 01:16:10;;;;;;;5.23;3.03;;;16.80;96.00;;;;;;5489622;26;20492;-56
2024/04/12 01:18:39;;;;;;;3.77;2.80;;;16.80;96.00;;;;;;5489303;26;20523;-56
2024/04/12 01:21:10;;;;;;;7.53;2.87;;;16.80;96.10;;;;;;5489710;26;20487;-56
2024/04/12 01:23:40;;;;;;;4.43;2.93;;;16.80;96.10;;;;;;5489301;26;20496;-56
2024/04/12 01:26:09;;;;;;;6.10;3.70;;;16.80;96.10;;;;;;5489288;26;20499;-56
2024/04/12 01:28:38;;;;;;;6.67;3.00;;;16.80;96.50;;;;;;5489029;26;20476;-56
2024/04/12 01:31:05;;;;;;;6.00;3.10;;;16.80;96.60;;;;;;5489230;26;20947;-56
2024/04/12 01:33:34;;;;;;;9.83;3.07;;;16.80;96.60;;;;;;5489110;26;20451;-56
2024/04/12 01:36:04;;;;;;;5.47;2.50;;;16.80;96.70;;;;;;5488940;26;20951;-56
2024/04/12 01:38:36;;;;;;;6.50;3.67;;;16.80;96.80;;;;;;5489145;26;21012;-57
2024/04/12 01:41:05;;;;;;;5.77;2.90;;;16.80;96.80;;;;;;5489078;26;20443;-57
2024/04/12 01:43:36;;;;;;;5.10;2.87;;;16.70;96.80;;;;;;5488731;26;20504;-56
2024/04/12 01:46:04;;;;;;;5.43;3.27;;;16.70;96.90;;;;;;5488886;26;20459;-56
2024/04/12 01:48:33;;;;;;;4.10;2.97;;;16.70;97.00;;;;;;5489009;26;20581;-56
2024/04/12 01:51:02;;;;;;;4.43;2.80;;;16.70;97.10;;;;;;5488977;26;20542;-56
2024/04/12 01:53:36;;;;;;;5.20;2.90;;;16.60;97.20;;;;;;5488937;26;21040;-57
2024/04/12 01:56:03;;;;;;;3.43;3.13;;;16.60;97.30;;;;;;5488859;26;20562;-56
2024/04/12 01:58:34;;;;;;;11.10;3.50;;;16.60;97.40;;;;;;5488723;26;20520;-57
2024/04/12 02:01:02;;;;;;;3.83;3.43;;;16.60;97.40;;;;;;5488866;26;20495;-57
2024/04/12 02:03:32;;;;;;;4.93;3.27;;;16.60;97.50;;;;;;5488720;26;20463;-57
2024/04/12 02:06:05;;;;;;;3.80;3.10;;;16.60;97.60;;;;;;5489560;26;20789;-57
2024/04/12 02:08:35;;;;;;;6.00;3.50;;;16.60;97.60;;;;;;5492627;26;20475;-57
2024/04/12 02:11:05;;;;;;;4.90;3.20;;;16.60;97.70;;;;;;5492443;26;20987;-56
2024/04/12 02:13:38;;;;;;;5.40;3.23;;;16.50;97.90;;;;;;5492292;26;20455;-57
2024/04/12 02:16:10;;;;;;;5.97;4.27;;;16.50;98.00;;;;;;5492179;26;20439;-56
2024/04/12 02:18:44;;;;;;;3.90;3.57;;;16.50;98.10;;;;;;5492118;26;20511;-56
2024/04/12 02:21:10;;;;;;;4.37;3.97;;;16.50;98.30;;;;;;5492250;26;20557;-57
2024/04/12 02:23:40;;;;;;;5.67;4.33;;;16.50;98.60;;;;;;5492094;26;20504;-57
2024/04/12 02:26:08;;;;;;;9.00;5.03;;;16.50;98.70;;;;;;5492038;26;20459;-57
2024/04/12 02:28:39;;;;;;;6.30;3.83;;;16.40;98.80;;;;;;5492021;26;20866;-56
2024/04/12 02:31:08;;;;;;;6.53;5.10;;;16.40;99.00;;;;;;5491867;26;20444;-56
2024/04/12 02:33:38;;;;;;;7.30;4.73;;;16.40;99.20;;;;;;5492008;26;20841;-56
2024/04/12 02:36:11;;;;;;;15.57;5.83;;;16.40;99.30;;;;;;5491896;26;20901;-56
2024/04/12 02:38:40;;;;;;;8.07;5.47;;;16.40;99.50;;;;;;5492241;26;20501;-56
2024/04/12 02:41:13;;;;;;;7.77;4.97;;;16.30;99.60;;;;;;5491970;26;20451;-56
2024/04/12 02:43:42;;;;;;;12.30;5.27;;;16.30;99.80;;;;;;5491896;26;20815;-56
2024/04/12 02:46:10;;;;;;;5.17;4.70;;;16.30;99.70;;;;;;5491715;26;20444;-56
2024/04/12 02:48:40;;;;;;;10.00;4.87;;;16.30;99.90;;;;;;5491798;26;20899;-56
2024/04/12 02:51:06;;;;;;;6.47;5.00;;;16.30;99.90;;;;;;5491711;26;20452;-56
2024/04/12 02:53:36;;;;;;;7.43;5.10;;;16.30;99.90;;;;;;5491950;26;20503;-56
2024/04/12 02:56:04;;;;;;;10.83;6.30;;;16.30;99.90;;;;;;5491441;26;20491;-57
2024/04/12 02:58:38;;;;;;;8.23;5.07;;;16.30;99.90;;;;;;5491387;26;20515;-57
2024/04/12 03:01:07;;;;;;;8.77;5.70;;;16.30;99.90;;;;;;5491637;26;20495;-56
2024/04/12 03:03:41;;;;;;;10.20;5.20;;;16.30;99.90;;;;;;5491484;26;20908;-56
2024/04/12 03:06:09;;;;;;;7.87;5.73;;;16.30;99.90;;;;;;5491454;26;20507;-56
2024/04/12 03:08:38;;;;;;;8.90;5.90;;;16.30;99.90;;;;;;5491387;26;20856;-56
2024/04/12 03:11:20;;;;;;;7.07;6.07;;;16.20;99.90;;;;;;5491232;26;20443;-57
2024/04/12 03:13:50;;;;;;;5.97;5.33;;;16.20;99.90;;;;;;5490812;26;20865;-57
2024/04/12 03:16:18;;;;;;;8.30;5.43;;;16.20;99.90;;;;;;5491026;26;20560;-57
2024/04/12 03:18:51;;;;;;;7.23;5.83;;;16.20;99.90;;;;;;5489786;26;20808;-57
2024/04/12 03:21:20;;;;;;;10.73;6.07;;;16.20;99.90;;;;;;5491096;26;20451;-57
2024/04/12 03:23:49;;;;;;;7.50;6.20;;;16.20;99.90;;;;;;5490873;26;20448;-56
2024/04/12 03:26:16;;;;;;;9.33;7.40;;;16.20;99.90;;;;;;5491254;26;20582;-57
2024/04/12 03:28:49;;;;;;;13.97;7.13;;;16.10;99.90;;;;;;5491003;26;20475;-56
2024/04/12 03:31:15;;;;;;;10.90;7.00;;;16.10;99.90;;;;;;5491194;26;20455;-57
2024/04/12 03:33:46;;;;;;;10.17;8.03;;;16.10;99.90;;;;;;5491093;26;20444;-57
2024/04/12 03:36:26;;;;;;;14.73;8.40;;;16.10;99.90;;;;;;5491159;26;20456;-57
2024/04/12 03:39:24;;;;;;;7.50;6.70;;;16.10;99.90;;;;;;5490985;26;20467;-59
2024/04/12 03:41:44;;;;;;;12.10;6.87;;;16.10;99.90;;;;;;5490770;26;20502;-58
2024/04/12 03:44:13;;;;;;;11.97;7.63;;;16.10;99.90;;;;;;5490731;26;20876;-58
2024/04/12 03:46:40;;;;;;;9.37;7.37;;;16.10;99.90;;;;;;5490957;26;20448;-58
2024/04/12 03:49:13;;;;;;;16.43;7.13;;;16.00;99.90;;;;;;5490813;26;20459;-58
2024/04/12 03:51:46;;;;;;;9.63;7.23;;;16.00;99.90;;;;;;5490935;26;20503;-59
2024/04/12 03:54:17;;;;;;;8.30;6.90;;;16.00;99.90;;;;;;5490847;26;20448;-59
2024/04/12 03:56:49;;;;;;;9.93;6.87;;;16.10;99.90;;;;;;5490716;26;20459;-59
2024/04/12 03:59:18;;;;;;;8.77;7.17;;;16.00;99.90;;;;;;5490524;26;20462;-59
2024/04/12 04:01:47;;;;;;;12.77;7.30;;;16.00;99.90;;;;;;5490544;26;20471;-59
2024/04/12 04:04:19;;;;;;;10.37;7.17;;;16.00;99.90;;;;;;5490517;26;20496;-58
2024/04/12 04:06:54;;;;;;;16.17;8.17;;;16.00;99.90;;;;;;5490381;26;20451;-59
2024/04/12 04:09:20;;;;;;;9.30;7.00;;;16.00;99.90;;;;;;5490494;26;20507;-59
2024/04/12 04:11:53;;;;;;;7.80;6.53;;;16.00;99.90;;;;;;5490662;26;20459;-59
2024/04/12 04:14:19;;;;;;;12.47;7.40;;;16.00;99.90;;;;;;5490491;26;20444;-58
2024/04/12 04:16:49;;;;;;;8.57;7.10;;;16.00;99.90;;;;;;5490246;26;20565;-57
2024/04/12 04:19:17;;;;;;;11.33;7.80;;;16.00;99.90;;;;;;5490362;26;20506;-58
2024/04/12 04:21:46;;;;;;;9.83;7.30;;;16.00;99.90;;;;;;5490510;26;20503;-59
2024/04/12 04:24:14;;;;;;;10.10;7.77;;;16.00;99.90;;;;;;5490325;26;20500;-58
2024/04/12 04:26:44;;;;;;;11.80;8.57;;;16.00;99.90;;;;;;5490496;26;20451;-58
2024/04/12 04:29:09;;;;;;;8.80;7.50;;;16.00;99.90;;;;;;5490314;26;20847;-58
2024/04/12 04:31:49;;;;;;;13.23;6.70;;;16.10;99.90;;;;;;5490395;26;20565;-57
2024/04/12 04:34:17;;;;;;;8.90;7.00;;;16.00;99.90;;;;;;5490513;26;20218;-58
2024/04/12 04:36:48;;;;;;;11.43;8.40;;;16.00;99.90;;;;;;5490305;26;20518;-57
2024/04/12 04:39:17;;;;;;;10.03;7.53;;;16.00;99.90;;;;;;5489959;26;20467;-57
2024/04/12 04:41:47;;;;;;;14.07;7.03;;;16.00;99.90;;;;;;5490191;26;20560;-58
2024/04/12 04:44:15;;;;;;;10.90;7.63;;;16.00;99.90;;;;;;5490120;26;20565;-57
2024/04/12 04:46:44;;;;;;;10.87;7.57;;;16.00;99.90;;;;;;5489916;26;20515;-58
2024/04/12 04:49:11;;;;;;;9.00;6.87;;;16.00;99.90;;;;;;5490074;26;20984;-57
2024/04/12 04:51:41;;;;;;;10.50;7.03;;;16.00;99.90;;;;;;5489972;26;20459;-58
2024/04/12 04:54:11;;;;;;;9.63;6.73;;;16.00;99.90;;;;;;5489766;26;20977;-57
2024/04/12 04:56:42;;;;;;;8.27;6.93;;;16.00;99.90;;;;;;5489765;26;20491;-58
2024/04/12 04:59:08;;;;;;;12.50;7.63;;;15.90;99.90;;;;;;5489754;26;20580;-58
2024/04/12 05:01:37;;;;;;;12.30;7.20;;;15.90;99.90;;;;;;5489763;26;20443;-58
2024/04/12 05:04:03;;;;;;;8.73;7.53;;;15.90;99.90;;;;;;5489504;26;20954;-58
2024/04/12 05:06:32;;;;;;;13.73;7.60;;;15.90;99.90;;;;;;5489648;26;20813;-58
2024/04/12 05:09:00;;;;;;;10.70;8.10;;;15.90;99.90;;;;;;5489408;26;20870;-58
2024/04/12 05:11:30;;;;;;;14.53;7.03;;;15.90;99.90;;;;;;5489782;26;20439;-57
2024/04/12 05:14:06;;;;;;;10.47;7.00;;;15.90;99.90;;;;;;5489484;26;20577;-59
2024/04/12 05:16:34;;;;;;;6.23;5.70;;;15.90;99.90;;;;;;5489558;26;20501;-58
2024/04/12 05:19:08;;;;;;;7.30;5.80;;;15.90;99.90;;;;;;5489231;26;20463;-58
2024/04/12 05:21:38;;;;;;;11.07;7.20;;;15.90;99.90;;;;;;5489202;26;20557;-59
2024/04/12 05:24:09;;;;;;;7.13;6.43;;;15.90;99.90;;;;;;5491525;26;20492;-59
2024/04/12 05:26:41;;;;;;;11.03;6.80;;;15.90;99.90;;;;;;5491368;26;20596;-57
2024/04/12 05:29:09;;;;;;;10.20;6.60;;;15.90;99.90;;;;;;5490798;26;20460;-58
2024/04/12 05:31:38;;;;;;;9.20;6.20;;;15.90;99.90;;;;;;5489399;26;20557;-57
2024/04/12 05:34:05;;;;;;;7.80;6.80;;;16.00;99.90;;;;;;5489354;26;20558;-57
2024/04/12 05:36:36;;;;;;;7.77;5.73;;;16.00;99.90;;;;;;5489258;26;20515;-57
2024/04/12 05:39:08;;;;;;;7.73;5.70;;;16.00;99.90;;;;;;5489138;26;20516;-57
2024/04/12 05:41:38;;;;;;;6.50;5.87;;;16.00;99.90;;;;;;5490627;26;20459;-58
2024/04/12 05:44:06;;;;;;;8.50;6.47;;;16.10;99.90;;;;;;5492799;26;20500;-58
2024/04/12 05:46:41;;;;;;;8.63;6.27;;;16.10;99.90;;;;;;5492798;26;20860;-57
2024/04/12 05:49:09;;;;;;;8.70;6.70;;;16.10;99.90;;;;;;5492696;26;20458;-58
2024/04/12 05:51:39;;;;;;;9.53;6.50;;;16.10;99.90;;;;;;5492554;26;20448;-58
2024/04/12 05:54:10;;;;;;;10.87;7.00;;;16.10;99.90;;;;;;5492597;26;20447;-58
2024/04/12 05:56:40;;;;;;;9.43;5.20;;;16.10;99.90;;;;;;5492733;26;20452;-58
2024/04/12 05:59:10;;;;;;;9.90;5.87;;;16.10;99.90;;;;;;5492346;26;20470;-57
2024/04/12 06:01:43;;;;;;;11.37;5.37;;;16.20;99.90;;;;;;5492454;26;20451;-57
2024/04/12 06:04:10;;;;;;;10.30;7.23;;;16.20;99.90;;;;;;5492318;26;20447;-57
2024/04/12 06:06:41;;;;;;;6.90;5.23;;;16.20;99.90;;;;;;5492246;26;20451;-57
2024/04/12 06:09:06;;;;;;;7.63;4.77;;;16.20;99.90;;;;;;5492251;26;20468;-57
2024/04/12 06:11:37;;;;;;;9.77;5.37;;;16.20;99.90;;;;;;5492288;26;20573;-57
2024/04/12 06:14:02;;;;;;;7.63;4.80;;;16.30;99.90;;;;;;5492307;26;20211;-57
2024/04/12 06:16:31;;;;;;;7.80;5.03;;;16.30;99.90;;;;;;5492263;26;20451;-57
2024/04/12 06:19:02;;;;;;;8.87;5.20;;;16.40;99.90;;;;;;5492107;26;20324;-58
2024/04/12 06:21:30;;;;;;;6.50;5.80;;;16.40;99.90;;;;;;5492333;26;20444;-57
2024/04/12 06:23:56;;;;;;;6.07;4.73;;;16.40;99.90;;;;;;5492117;26;20443;-58
2024/04/12 06:26:25;;;;;;;6.03;4.37;;;16.50;99.90;;;;;;5492112;26;20961;-58
2024/04/12 06:28:54;;;;;;;8.77;4.97;;;16.50;99.90;;;;;;5491906;26;20230;-57
2024/04/12 06:31:34;;;;;;;4.87;3.90;;;16.50;99.90;;;;;;5492033;26;20503;-57
2024/04/12 06:34:04;;;;;;;6.77;4.10;;;16.60;99.90;;;;;;5492136;26;20443;-58
2024/04/12 06:36:34;;;;;;;6.47;4.13;;;16.70;99.90;;;;;;5492018;26;20490;-56
2024/04/12 06:39:04;;;;;;;9.50;4.43;;;16.70;99.90;;;;;;5491844;26;20471;-57
2024/04/12 06:41:33;;;;;;;6.63;3.57;;;16.80;99.90;;;;;;5492025;26;20443;-56
2024/04/12 06:43:58;;;;;;;5.13;4.50;;;16.80;99.90;;;;;;5491790;26;20447;-57
2024/04/12 06:46:27;;;;;;;8.70;4.70;;;16.90;99.90;;;;;;5491811;26;20452;-57
2024/04/12 06:49:07;;;;;;;9.03;4.30;;;16.90;99.90;;;;;;5491813;26;20268;-56
2024/04/12 06:52:02;;;;;;;6.03;3.43;;;17.00;99.90;;;;;;5491886;26;20488;-57
2024/04/12 06:54:25;;;;;;;4.30;3.80;;;17.10;99.90;;;;;;5490857;26;20817;-57
2024/04/12 06:56:55;;;;;;;7.00;3.93;;;17.10;99.90;;;;;;5491737;26;20451;-57
2024/04/12 06:59:26;;;;;;;9.20;4.20;;;17.20;99.90;;;;;;5491610;26;20503;-57
2024/04/12 07:01:55;;;;;;;7.73;3.77;;;17.20;99.90;;;;;;5491697;26;20456;-56
2024/04/12 07:04:21;;;;;;;4.27;3.60;;;17.30;99.90;;;;;;5491480;26;20496;-57
2024/04/12 07:06:56;;;;;;;5.27;3.80;;;17.40;99.90;;;;;;5491432;26;20822;-57
2024/04/12 07:09:22;;;;;;;7.17;4.50;;;17.40;99.90;;;;;;5491522;26;20335;-57
2024/04/12 07:11:52;;;;;;;11.77;4.67;;;17.50;99.90;;;;;;5491444;26;20534;-56
2024/04/12 07:14:22;;;;;;;9.90;4.20;;;17.50;99.90;;;;;;5491522;26;20447;-57
2024/04/12 07:16:50;;;;;;;9.57;4.97;;;17.50;99.90;;;;;;5491549;26;20519;-57
2024/04/12 07:19:18;;;;;;;10.20;5.00;;;17.60;99.90;;;;;;5491234;26;20512;-57
2024/04/12 07:21:47;;;;;;;12.40;4.80;;;17.60;99.90;;;;;;5491386;26;20457;-57
2024/04/12 07:24:15;;;;;;;4.40;4.00;;;17.70;99.90;;;;;;5491176;26;20494;-57
2024/04/12 07:26:47;;;;;;;12.70;5.10;;;17.80;99.90;;;;;;5491195;26;20495;-57
2024/04/12 07:29:13;;;;;;;9.77;4.57;;;18.00;99.90;;;;;;5491220;26;20503;-57
2024/04/12 07:31:42;;;;;;;8.87;4.50;;;18.10;99.90;;;;;;5491070;26;20459;-57
2024/04/12 07:34:08;;;;;;;8.77;5.00;;;18.20;99.80;;;;;;5491100;26;20792;-57
2024/04/12 07:36:39;;;;;;;13.63;5.50;;;18.30;99.60;;;;;;5491135;26;20467;-55
2024/04/12 07:39:07;;;;;;;7.57;4.70;;;18.40;99.70;;;;;;5491148;26;20511;-56
2024/04/12 07:41:43;;;;;;;11.47;4.70;;;18.40;99.40;;;;;;5491237;26;21025;-55
2024/04/12 07:44:12;;;;;;;8.70;4.70;;;18.50;99.10;;;;;;5491090;26;20560;-56
2024/04/12 07:46:48;;;;;;;7.53;5.03;;;18.50;98.90;;;;;;5490049;26;20823;-57
2024/04/12 07:49:14;;;;;;;5.90;4.73;;;18.60;98.80;;;;;;5490559;26;20577;-57
2024/04/12 07:51:45;;;;;;;7.13;5.30;;;18.60;98.50;;;;;;5490743;26;20455;-56
2024/04/12 07:54:11;;;;;;;9.67;4.70;;;18.70;98.40;;;;;;5490980;26;20504;-56
2024/04/12 07:56:44;;;;;;;7.50;4.97;;;18.70;98.30;;;;;;5490793;26;20897;-56
2024/04/12 07:59:13;;;;;;;12.13;4.90;;;18.70;98.20;;;;;;5490679;26;20504;-56
2024/04/12 08:01:45;;;;;;;8.80;5.00;;;18.80;98.30;;;;;;5490529;26;20452;-56
2024/04/12 08:04:22;;;;;;;7.47;4.20;;;18.70;98.30;;;;;;5490033;26;20448;-56
2024/04/12 08:06:58;;;;;;;8.07;4.37;;;18.80;98.50;;;;;;5490482;26;20557;-56
2024/04/12 08:09:34;;;;;;;8.47;4.33;;;18.90;98.40;;;;;;5490248;26;20538;-57
2024/04/12 08:12:13;;;;;;;6.40;4.80;;;19.00;98.40;;;;;;5490424;26;20533;-57
2024/04/12 08:14:39;;;;;;;8.67;5.30;;;19.10;98.20;;;;;;5490393;26;20496;-56
2024/04/12 08:17:14;;;;;;;16.00;6.33;;;19.20;97.90;;;;;;5489724;26;20443;-57
2024/04/12 08:19:45;;;;;;;9.63;5.30;;;19.30;97.80;;;;;;5490131;26;20459;-56
2024/04/12 08:22:18;;;;;;;5.63;3.93;;;19.30;97.60;;;;;;5490298;26;20545;-57
2024/04/12 08:24:49;;;;;;;13.70;4.80;;;19.30;97.50;;;;;;5490240;26;20443;-56
2024/04/12 08:27:24;;;;;;;17.83;4.70;;;19.30;97.50;;;;;;5490105;26;20451;-56
2024/04/12 08:29:50;;;;;;;10.13;4.37;;;19.30;97.30;;;;;;5490138;26;20938;-56
2024/04/12 08:32:27;;;;;;;4.23;3.60;;;19.30;97.00;;;;;;5490106;26;20459;-56
2024/04/12 08:34:55;;;;;;;6.00;3.60;;;19.40;97.10;;;;;;5490079;26;20285;-57
2024/04/12 08:37:30;;;;;;;6.00;3.33;;;19.40;97.20;;;;;;5489969;26;20459;-57
2024/04/12 08:39:57;;;;;;;3.80;3.13;;;19.30;97.10;;;;;;5490152;26;20992;-56
2024/04/12 08:42:32;;;;;;;4.47;4.17;;;19.40;97.40;;;;;;5489842;26;20516;-56
2024/04/12 08:44:59;;;;;;;7.90;3.83;;;19.40;97.30;;;;;;5489876;26;20503;-56
2024/04/12 08:47:32;;;;;;;4.33;3.00;;;19.40;96.90;;;;;;5489824;26;20460;-56
2024/04/12 08:50:03;;;;;;;4.97;3.67;;;19.40;97.10;;;;;;5489865;26;20565;-58
2024/04/12 08:52:42;;;;;;;8.23;3.40;;;19.50;97.10;;;;;;5489839;26;20499;-56
2024/04/12 08:55:13;;;;;;;6.27;3.10;;;19.60;96.60;;;;;;5489884;26;20443;-57
2024/04/12 08:57:47;;;;;;;5.50;3.53;;;19.60;96.70;;;;;;5489543;26;20511;-57
2024/04/12 09:00:18;;;;;;;7.30;3.60;;;19.80;96.80;;;;;;5489729;26;20443;-56
2024/04/12 09:02:51;;;;;;;4.77;3.40;;;19.90;96.40;;;;;;5489644;26;20503;-55
2024/04/12 09:05:22;;;;;;;4.80;3.33;;;20.10;96.00;;;;;;5489555;26;20519;-56
2024/04/12 09:07:54;;;;;;;6.30;3.00;;;20.20;95.60;;;;;;5489562;26;20606;-56
2024/04/12 09:10:20;;;;;;;6.60;3.43;;;20.30;95.60;;;;;;5489119;26;20523;-58
2024/04/12 09:12:51;;;;;;;7.10;3.80;;;20.40;95.60;;;;;;5489736;26;20876;-58
2024/04/12 09:15:24;;;;;;;4.80;3.20;;;20.50;95.40;;;;;;5488598;26;20575;-57
2024/04/12 09:17:59;;;;;;;3.17;2.83;;;20.50;95.20;;;;;;5489006;26;20479;-57
2024/04/12 09:20:30;;;;;;;6.60;3.23;;;20.60;94.60;;;;;;5489300;26;20517;-57
2024/04/12 09:23:13;;;;;;;13.00;3.10;;;20.70;94.40;;;;;;5489375;26;20451;-55
2024/04/12 09:25:44;;;;;;;5.53;3.30;;;20.80;94.20;;;;;;5489214;26;20447;-55
2024/04/12 09:28:17;;;;;;;8.23;3.53;;;20.70;93.60;;;;;;5489268;26;20515;-55
2024/04/12 09:33:31;;;;;;;3.90;2.43;;;20.70;94.30;;;;;;5433354;26;20565;-56
2024/04/12 09:36:06;;;;;;;5.57;2.97;;;20.70;94.40;;;;;;5489210;26;20590;-56
2024/04/12 09:38:33;;;;;;;28.57;3.83;;;20.80;93.60;;;;;;5488963;26;20522;-56
2024/04/12 09:41:13;;;;;;;5.17;2.67;;;20.90;94.10;;;;;;5488957;26;21083;-57
2024/04/12 09:43:47;;;;;;;4.23;2.80;;;21.00;93.60;;;;;;5488979;26;20828;-56
2024/04/12 09:46:23;;;;;;;3.40;2.30;;;21.10;93.00;;;;;;5488809;26;20514;-56
2024/04/12 10:39:11;;;;;;;5.70;2.10;;;22.20;89.20;;;;;;5494397;26;20500;-56
2024/04/12 10:41:41;;;;;;;3.60;1.70;;;22.20;90.30;;;;;;5491734;26;20890;-56
2024/04/12 10:44:10;;;;;;;4.13;1.50;;;22.10;89.50;;;;;;5491725;26;20452;-56
2024/04/12 10:46:39;;;;;;;4.47;1.77;;;22.00;89.20;;;;;;5491692;26;20819;-56
2024/04/12 10:49:09;;;;;;;1.97;1.50;;;21.90;88.60;;;;;;5491786;26;20464;-57
2024/04/12 10:51:39;;;;;;;4.90;2.20;;;21.90;89.30;;;;;;5491915;26;20440;-56
2024/04/12 10:54:10;;;;;;;6.40;2.03;;;21.80;90.00;;;;;;5491997;26;20500;-57
2024/04/12 10:56:47;;;;;;;4.07;1.80;;;21.80;90.30;;;;;;5491724;26;20440;-56
2024/04/12 10:59:26;;;;;;;3.30;1.70;;;21.80;90.20;;;;;;5491552;26;20463;-56
2024/04/12 11:01:55;;;;;;;4.40;1.93;;;21.80;88.40;;;;;;5491732;26;20502;-56
2024/04/12 11:04:28;;;;;;;5.40;2.13;;;21.80;90.00;;;;;;5491600;26;20447;-57
2024/04/12 11:06:56;;;;;;;8.03;2.00;;;21.70;90.10;;;;;;5491428;26;20464;-56
2024/04/12 11:09:30;;;;;;;5.03;1.97;;;21.70;90.10;;;;;;5491326;26;20473;-57
2024/04/12 11:12:09;;;;;;;6.50;1.57;;;21.60;90.10;;;;;;5491280;26;20856;-57
2024/04/12 11:14:35;;;;;;;5.30;2.10;;;21.60;90.00;;;;;;5491314;26;20511;-56
2024/04/12 11:31:14;;;;;;;1.80;1.20;;;22.20;89.30;;;;;;5494187;26;21086;-58
2024/04/12 11:33:51;;;;;;;2.60;1.40;;;22.30;87.00;;;;;;5491197;26;20451;-56
2024/04/12 11:36:24;;;;;;;6.43;2.40;;;22.40;87.90;;;;;;5491263;26;20797;-57
2024/04/12 11:38:53;;;;;;;5.40;1.50;;;22.50;85.70;;;;;;5490152;26;20459;-57
2024/04/12 11:41:23;;;;;;;2.13;1.50;;;22.50;84.90;;;;;;5490886;26;20447;-58
2024/04/12 11:43:54;;;;;;;2.30;1.20;;;22.60;84.30;;;;;;5490931;26;20452;-57
2024/04/12 11:46:23;;;;;;;7.20;1.43;;;22.70;84.60;;;;;;5490872;26;20507;-58
2024/04/12 11:48:53;;;;;;;4.20;1.60;;;22.80;82.70;;;;;;5490859;26;20460;-57
2024/04/12 11:51:22;;;;;;;2.43;1.30;;;22.90;82.00;;;;;;5490733;26;20451;-57
2024/04/12 11:53:51;;;;;;;2.63;1.20;;;23.20;80.80;;;;;;5490788;26;20515;-57
2024/04/12 11:56:17;;;;;;;1.53;1.20;;;23.80;78.90;;;;;;5490512;26;20607;-57
2024/04/12 11:58:46;;;;;;;1.57;0.80;;;24.70;76.50;;;;;;5490597;26;20479;-56
2024/04/12 12:01:13;;;;;;;2.63;1.20;;;25.70;71.60;;;;;;5490612;26;20568;-56
2024/04/12 12:03:41;;;;;;;2.30;0.87;;;26.60;69.30;;;;;;5490529;26;20852;-57
2024/04/12 12:06:07;;;;;;;2.57;1.23;;;27.60;63.10;;;;;;5490565;26;20531;-57
2024/04/12 12:08:41;;;;;;;2.90;1.17;;;28.40;58.30;;;;;;5490492;26;20467;-57
2024/04/12 12:11:08;;;;;;;3.40;1.20;;;28.90;56.80;;;;;;5490516;26;20743;-57
2024/04/12 12:13:42;;;;;;;2.40;1.37;;;29.30;54.30;;;;;;5490407;26;20459;-56
2024/04/12 12:16:08;;;;;;;2.33;1.33;;;29.50;52.40;;;;;;5490482;26;20783;-57
2024/04/12 12:18:42;;;;;;;3.00;1.50;;;29.30;52.20;;;;;;5490429;26;20465;-56
2024/04/12 12:21:10;;;;;;;3.17;1.60;;;29.10;52.00;;;;;;5490183;26;20446;-56
2024/04/12 12:23:42;;;;;;;4.00;1.77;;;28.70;53.10;;;;;;5490280;26;20507;-56
2024/04/12 12:26:08;;;;;;;4.73;1.20;;;28.30;52.70;;;;;;5490125;26;20875;-56
2024/04/12 12:28:40;;;;;;;2.27;1.30;;;27.70;53.30;;;;;;5490226;26;20541;-56
2024/04/12 12:31:06;;;;;;;4.00;1.23;;;27.30;55.40;;;;;;5489959;26;20969;-57
2024/04/12 12:33:38;;;;;;;3.53;1.70;;;27.20;56.80;;;;;;5490081;26;20451;-56
2024/04/12 12:36:05;;;;;;;3.33;1.60;;;27.20;56.00;;;;;;5490083;26;20448;-57
2024/04/12 12:38:36;;;;;;;4.33;1.37;;;27.60;55.20;;;;;;5490090;26;20463;-57
2024/04/12 12:41:05;;;;;;;5.00;1.83;;;28.30;53.00;;;;;;5490195;26;20440;-56
2024/04/12 12:43:33;;;;;;;1.77;1.20;;;28.60;50.50;;;;;;5489995;26;20824;-56
2024/04/12 12:46:00;;;;;;;3.43;1.17;;;28.30;51.70;;;;;;5489940;26;20551;-56
2024/04/12 12:48:29;;;;;;;3.30;1.70;;;27.90;51.80;;;;;;5489699;26;20456;-58
2024/04/12 12:50:56;;;;;;;2.40;1.20;;;27.70;53.50;;;;;;5488102;26;20443;-57
2024/04/12 12:53:27;;;;;;;7.00;1.20;;;27.70;54.30;;;;;;5489931;26;20507;-57
2024/04/12 12:56:08;;;;;;;5.00;1.60;;;27.70;54.10;;;;;;5489665;26;20828;-56
2024/04/12 12:58:37;;;;;;;3.73;1.60;;;27.80;52.70;;;;;;5489573;26;20515;-57
2024/04/12 13:01:07;;;;;;;4.93;1.50;;;28.00;51.60;;;;;;5489817;26;20499;-56
2024/04/12 13:03:36;;;;;;;4.67;1.67;;;28.10;50.90;;;;;;5489566;26;20463;-57
2024/04/12 13:06:06;;;;;;;4.87;1.97;;;27.90;50.90;;;;;;5489461;26;20823;-57
2024/04/12 13:08:35;;;;;;;1.80;1.23;;;27.70;51.90;;;;;;5489460;26;20471;-57
2024/04/12 13:11:08;;;;;;;2.97;1.27;;;27.60;52.30;;;;;;5489459;26;20428;-56
2024/04/12 13:13:39;;;;;;;2.23;1.60;;;27.60;52.40;;;;;;5489467;26;20511;-56
2024/04/12 13:16:11;;;;;;;5.00;1.60;;;27.70;52.10;;;;;;5489468;26;20996;-58
2024/04/12 13:18:44;;;;;;;4.40;1.70;;;27.60;51.90;;;;;;5489305;26;20459;-56
2024/04/12 13:21:11;;;;;;;5.37;2.47;;;27.50;52.60;;;;;;5489968;26;20455;-57
2024/04/12 13:23:39;;;;;;;3.30;2.37;;;27.60;52.00;;;;;;5489272;26;20507;-56
2024/04/12 13:26:08;;;;;;;5.10;1.77;;;27.50;51.40;;;;;;5488979;26;20447;-57
2024/04/12 13:28:36;;;;;;;4.40;1.67;;;27.20;52.20;;;;;;5487914;26;20516;-58
2024/04/12 13:31:04;;;;;;;4.07;2.10;;;26.90;53.10;;;;;;5488879;26;20455;-57
2024/04/12 13:33:33;;;;;;;4.17;2.07;;;26.60;53.50;;;;;;5488991;26;20444;-57
2024/04/12 13:36:00;;;;;;;3.43;1.80;;;26.20;54.10;;;;;;5489019;26;20451;-57
2024/04/12 13:38:30;;;;;;;3.43;2.13;;;25.80;56.10;;;;;;5488940;26;20515;-57
2024/04/12 13:41:00;;;;;;;2.80;1.70;;;25.40;56.70;;;;;;5489104;26;20451;-57
2024/04/12 13:43:32;;;;;;;3.80;2.10;;;25.00;57.00;;;;;;5489156;26;20536;-57
2024/04/12 13:51:42;;;;;;;3.47;1.63;;;23.90;61.00;;;;;;5477858;26;21033;-57
2024/04/12 13:54:13;;;;;;;6.47;2.23;;;23.70;62.00;;;;;;5488839;26;20497;-58
2024/04/12 13:56:44;;;;;;;2.97;1.70;;;23.70;63.30;;;;;;5488857;26;20491;-58
2024/04/12 13:59:13;;;;;;;5.27;2.40;;;23.70;65.00;;;;;;5488642;26;20842;-57
2024/04/12 14:01:42;;;;;;;4.07;2.53;;;23.60;62.60;;;;;;5488964;26;20439;-58
2024/04/12 14:04:09;;;;;;;3.27;2.00;;;23.50;63.90;;;;;;5492476;26;20497;-56
2024/04/12 14:06:39;;;;;;;2.10;1.90;;;23.50;64.70;;;;;;5492054;26;20561;-56
2024/04/12 14:09:08;;;;;;;5.70;2.07;;;23.50;65.00;;;;;;5492512;26;21008;-57
2024/04/12 14:11:37;;;;;;;5.37;2.37;;;23.60;65.00;;;;;;5492115;26;20459;-57
2024/04/12 14:14:03;;;;;;;3.50;2.33;;;24.60;65.20;;;;;;5491873;26;20560;-57